CST,Max TemperatureF,Mean TemperatureF,Min TemperatureF,Max Dew PointF,MeanDew PointF,Min DewpointF,Max Humidity, Mean Humidity, Min Humidity, Max Sea Level PressureIn, Mean Sea Level PressureIn, Min Sea Level PressureIn, Max VisibilityMiles, Mean VisibilityMiles, Min VisibilityMiles, Max Wind SpeedMPH, Mean Wind SpeedMPH, Max Gust SpeedMPH,PrecipitationIn, CloudCover, Events, WindDirDegrees
2014-1-1,64,55,46,61,54,43,100,92,78,30.28,30.11,30.03,10,4,0,8,5,,0.02,8,Fog-Rain,13
2014-1-2,59,48,37,58,39,26,100,71,38,30.46,30.26,30.07,10,8,0,29,15,38,0.00,2,Fog-Rain,349
2014-1-3,55,42,28,41,32,24,89,70,45,30.48,30.37,30.22,10,10,10,13,10,18,0.00,0,,73
2014-1-4,69,58,48,59,54,44,96,83,63,30.15,29.98,29.88,10,10,4,15,10,,0.00,6,,165
2014-1-5,63,51,37,62,48,21,100,79,43,30.38,29.99,29.84,10,7,1,29,11,38,0.00,6,Rain-Snow,286
2014-1-6,37,32,27,21,15,9,64,50,34,30.71,30.61,30.39,10,10,9,25,19,32,0.00,0,Snow,354
2014-1-7,51,37,24,43,28,16,75,63,48,30.65,30.53,30.35,10,10,10,14,9,,0.00,5,,73
2014-1-8,61,57,53,58,55,46,100,92,74,30.33,30.20,30.13,10,5,2,20,14,25,0.19,8,Rain,136
2014-1-9,69,64,60,63,60,57,93,90,81,30.18,30.11,30.05,10,9,6,14,11,,0.00,8,,155
2014-1-10,70,64,59,65,62,59,100,92,78,30.03,29.89,29.83,10,6,0,16,11,,0.00,7,Fog-Rain,176
2014-1-11,75,63,51,57,49,38,100,76,26,30.15,30.01,29.89,10,6,0,17,7,,0.00,0,Fog,298
2014-1-12,70,54,39,62,48,39,97,86,53,30.15,30.08,29.91,10,6,0,20,4,25,0.03,1,Fog-Rain,122
2014-1-13,71,58,46,64,53,31,100,78,24,30.16,29.97,29.87,10,6,0,29,8,36,0.00,3,Fog,267
2014-1-14,66,52,39,55,42,33,90,67,40,30.22,30.13,30.07,10,10,10,18,4,,0.00,0,,202
2014-1-15,62,50,39,42,31,21,71,49,21,30.46,30.33,30.22,10,10,10,18,12,24,0.00,0,Rain,327
2014-1-16,66,54,43,51,47,41,97,74,54,30.20,30.14,30.08,10,10,9,12,7,,0.00,0,,177
2014-1-17,66,54,41,47,30,16,90,48,14,30.33,30.27,30.15,10,10,10,18,9,21,0.00,2,,30
2014-1-18,69,53,37,54,44,30,97,75,45,30.27,30.20,30.12,10,8,0,17,7,,0.00,2,Fog,101
2014-1-19,72,59,46,52,45,36,100,77,28,30.30,30.21,30.15,10,6,0,15,6,16,0.00,1,Fog,57
2014-1-20,68,58,48,61,57,47,100,93,76,30.12,30.04,29.93,10,6,0,16,7,,0.00,1,Fog,195
2014-1-21,64,54,37,56,29,22,93,42,21,30.35,30.25,30.05,10,10,10,30,18,38,0.00,0,,350
2014-1-22,64,50,36,53,40,27,90,66,45,30.25,30.15,30.06,10,10,10,15,7,,0.00,0,,128
2014-1-23,66,52,37,58,46,33,93,88,73,30.53,30.28,30.04,10,10,7,34,14,43,0.00,7,Rain,34
2014-1-24,37,34,30,34,30,26,96,87,70,30.68,30.59,30.40,10,8,2,26,19,36,0.18,8,Rain-Snow,3
2014-1-25,54,42,30,45,35,27,92,76,49,30.40,30.22,30.07,10,10,8,14,6,,0.00,0,,239
2014-1-26,64,52,39,57,49,39,97,86,67,30.05,29.92,29.79,10,8,0,15,6,,0.00,0,Fog,203
2014-1-27,63,54,45,59,47,23,100,75,41,30.15,29.94,29.80,10,7,0,29,11,34,0.00,4,Fog,304
2014-1-28,42,38,33,31,25,18,92,66,40,30.44,30.31,30.13,10,10,4,25,19,32,0.04,8,Rain-Snow,360
2014-1-29,46,37,28,28,22,15,76,60,30,30.51,30.42,30.32,10,10,10,15,10,18,0.00,0,,45
2014-1-30,64,46,28,55,45,22,93,76,60,30.31,30.10,29.96,10,10,9,17,10,,0.00,7,,136
2014-1-31,71,60,50,63,57,49,100,92,73,30.00,29.95,29.87,10,5,0,18,5,,0.00,7,Fog,130